sensor_id;sensor_type;location;lat;lon;timestamp;temperature;humidity
21417;DHT22;10869;52.238;10.716;2023-04-03T17:21:08;5.20;93.40
21417;DHT22;10869;52.238;10.716;2023-04-03T17:23:35;5.70;92.80
21417;DHT22;10869;52.238;10.716;2023-04-03T17:26:02;5.50;93.20
21417;DHT22;10869;52.238;10.716;2023-04-03T17:28:28;5.20;92.60
21417;DHT22;10869;52.238;10.716;2023-04-03T17:30:55;5.00;92.70
21417;DHT22;10869;52.238;10.716;2023-04-03T17:33:21;4.80;93.40
21417;DHT22;10869;52.238;10.716;2023-04-03T17:35:47;4.60;94.00
21417;DHT22;10869;52.238;10.716;2023-04-03T17:38:13;4.40;94.40
21417;DHT22;10869;52.238;10.716;2023-04-03T17:40:39;4.30;94.90
21417;DHT22;10869;52.238;10.716;2023-04-03T17:43:04;4.20;94.60
21417;DHT22;10869;52.238;10.716;2023-04-03T17:45:30;4.10;95.50
21417;DHT22;10869;52.238;10.716;2023-04-03T17:51:20;3.90;95.80
21417;DHT22;10869;52.238;10.716;2023-04-03T17:53:47;3.80;96.60
21417;DHT22;10869;52.238;10.716;2023-04-03T17:56:21;3.70;97.40
21417;DHT22;10869;52.238;10.716;2023-04-03T17:58:50;3.60;97.70
21417;DHT22;10869;52.238;10.716;2023-04-03T18:04:38;3.50;98.70
21417;DHT22;10869;52.238;10.716;2023-04-03T18:10:32;3.30;99.10
21417;DHT22;10869;52.238;10.716;2023-04-03T18:13:12;3.20;99.30
21417;DHT22;10869;52.238;10.716;2023-04-03T18:15:37;3.10;98.90
21417;DHT22;10869;52.238;10.716;2023-04-03T18:20:48;3.00;98.70
21417;DHT22;10869;52.238;10.716;2023-04-03T18:34:51;2.70;99.10
21417;DHT22;10869;52.238;10.716;2023-04-03T18:37:17;2.70;99.20
21417;DHT22;10869;52.238;10.716;2023-04-03T18:39:47;2.60;99.00
21417;DHT22;10869;52.238;10.716;2023-04-03T18:42:16;2.60;99.30
21417;DHT22;10869;52.238;10.716;2023-04-03T18:44:45;2.60;99.20
21417;DHT22;10869;52.238;10.716;2023-04-03T18:47:12;2.60;99.00
21417;DHT22;10869;52.238;10.716;2023-04-03T18:49:39;2.60;98.60
21417;DHT22;10869;52.238;10.716;2023-04-03T18:52:05;2.60;98.70
21417;DHT22;10869;52.238;10.716;2023-04-03T18:57:53;2.50;99.00
21417;DHT22;10869;52.238;10.716;2023-04-03T19:37:24;2.30;99.90
21417;DHT22;10869;52.238;10.716;2023-04-03T19:39:51;2.30;99.90
21417;DHT22;10869;52.238;10.716;2023-04-03T19:42:17;2.30;99.90
21417;DHT22;10869;52.238;10.716;2023-04-03T19:44:44;2.20;99.90
21417;DHT22;10869;52.238;10.716;2023-04-03T19:47:11;2.20;99.90
21417;DHT22;10869;52.238;10.716;2023-04-03T19:49:40;2.20;99.90
21417;DHT22;10869;52.238;10.716;2023-04-03T19:52:10;2.10;99.90
21417;DHT22;10869;52.238;10.716;2023-04-03T19:54:46;2.10;99.90
21417;DHT22;10869;52.238;10.716;2023-04-03T20:00:34;2.00;99.90
21417;DHT22;10869;52.238;10.716;2023-04-03T20:06:22;1.80;99.90
21417;DHT22;10869;52.238;10.716;2023-04-03T20:08:48;1.80;99.90
21417;DHT22;10869;52.238;10.716;2023-04-03T20:11:14;1.70;99.90
21417;DHT22;10869;52.238;10.716;2023-04-03T20:17:02;1.50;99.90
21417;DHT22;10869;52.238;10.716;2023-04-03T20:22:50;1.30;99.90
21417;DHT22;10869;52.238;10.716;2023-04-03T20:28:40;1.20;99.90
21417;DHT22;10869;52.238;10.716;2023-04-03T20:31:08;1.10;99.90
21417;DHT22;10869;52.238;10.716;2023-04-03T20:33:34;1.10;99.90
21417;DHT22;10869;52.238;10.716;2023-04-03T20:36:01;1.00;99.90
21417;DHT22;10869;52.238;10.716;2023-04-03T20:38:28;1.00;99.90
21417;DHT22;10869;52.238;10.716;2023-04-03T20:40:54;1.00;99.90
21417;DHT22;10869;52.238;10.716;2023-04-03T20:43:20;0.90;99.90
21417;DHT22;10869;52.238;10.716;2023-04-03T20:49:09;0.90;99.90
21417;DHT22;10869;52.238;10.716;2023-04-03T20:51:36;0.80;99.90
21417;DHT22;10869;52.238;10.716;2023-04-03T20:54:04;0.80;99.90
21417;DHT22;10869;52.238;10.716;2023-04-03T20:56:32;0.80;99.90
21417;DHT22;10869;52.238;10.716;2023-04-03T20:59:02;0.80;99.90
21417;DHT22;10869;52.238;10.716;2023-04-03T21:01:32;0.70;99.90
21417;DHT22;10869;52.238;10.716;2023-04-03T21:04:15;0.70;99.90
21417;DHT22;10869;52.238;10.716;2023-04-03T21:21:25;0.30;99.90
21417;DHT22;10869;52.238;10.716;2023-04-03T21:23:52;0.30;99.90
21417;DHT22;10869;52.238;10.716;2023-04-03T21:26:26;0.20;99.90
21417;DHT22;10869;52.238;10.716;2023-04-03T21:28:52;0.20;99.90
21417;DHT22;10869;52.238;10.716;2023-04-03T21:31:21;0.10;99.90
21417;DHT22;10869;52.238;10.716;2023-04-03T21:33:46;0.10;99.90
21417;DHT22;10869;52.238;10.716;2023-04-03T21:36:12;0.10;99.90
21417;DHT22;10869;52.238;10.716;2023-04-03T21:38:38;0.10;99.90
21417;DHT22;10869;52.238;10.716;2023-04-03T21:41:04;0.10;99.90
21417;DHT22;10869;52.238;10.716;2023-04-03T21:43:30;0.10;99.90
21417;DHT22;10869;52.238;10.716;2023-04-03T21:45:57;0.10;99.90
21417;DHT22;10869;52.238;10.716;2023-04-03T21:48:24;0.10;99.90
21417;DHT22;10869;52.238;10.716;2023-04-03T21:50:53;0.10;99.90
21417;DHT22;10869;52.238;10.716;2023-04-03T21:53:22;0.10;99.90
21417;DHT22;10869;52.238;10.716;2023-04-03T21:55:52;0.10;99.90
21417;DHT22;10869;52.238;10.716;2023-04-03T21:58:19;0.00;99.90
21417;DHT22;10869;52.238;10.716;2023-04-03T22:00:44;0.00;99.90
21417;DHT22;10869;52.238;10.716;2023-04-03T22:03:10;-0.10;99.90
21417;DHT22;10869;52.238;10.716;2023-04-03T22:05:37;-0.10;99.90
21417;DHT22;10869;52.238;10.716;2023-04-03T22:08:03;-0.10;99.90
21417;DHT22;10869;52.238;10.716;2023-04-03T22:10:29;-0.20;99.90
21417;DHT22;10869;52.238;10.716;2023-04-03T22:12:56;-0.20;99.90
21417;DHT22;10869;52.238;10.716;2023-04-03T22:15:21;-0.20;99.90
21417;DHT22;10869;52.238;10.716;2023-04-03T22:17:47;-0.20;99.90
21417;DHT22;10869;52.238;10.716;2023-04-03T22:20:13;-0.20;99.90
21417;DHT22;10869;52.238;10.716;2023-04-03T22:22:39;-0.20;99.90
21417;DHT22;10869;52.238;10.716;2023-04-03T22:25:05;-0.20;99.90
21417;DHT22;10869;52.238;10.716;2023-04-03T22:27:30;-0.20;99.90
21417;DHT22;10869;52.238;10.716;2023-04-03T22:29:57;-0.20;99.90
21417;DHT22;10869;52.238;10.716;2023-04-03T22:32:22;-0.30;99.90
21417;DHT22;10869;52.238;10.716;2023-04-03T22:34:48;-0.30;99.90
21417;DHT22;10869;52.238;10.716;2023-04-03T22:37:14;-0.40;99.90
21417;DHT22;10869;52.238;10.716;2023-04-03T22:39:40;-0.40;99.90
21417;DHT22;10869;52.238;10.716;2023-04-03T22:42:05;-0.50;99.90
21417;DHT22;10869;52.238;10.716;2023-04-03T22:44:32;-0.50;99.90
21417;DHT22;10869;52.238;10.716;2023-04-03T22:46:57;-0.50;99.90
21417;DHT22;10869;52.238;10.716;2023-04-03T22:49:23;-0.60;99.90
21417;DHT22;10869;52.238;10.716;2023-04-03T22:51:49;-0.60;99.90
21417;DHT22;10869;52.238;10.716;2023-04-03T22:54:15;-0.70;99.90
21417;DHT22;10869;52.238;10.716;2023-04-03T22:56:40;-0.70;99.90
21417;DHT22;10869;52.238;10.716;2023-04-03T22:59:06;-0.80;99.90
